createdAt,value
2023-05-24T00:01:00.285Z,51.45
2023-05-24T00:03:31.012Z,51.36
2023-05-24T00:05:58.644Z,51.35
2023-05-24T00:08:25.718Z,51.33
2023-05-24T00:10:53.122Z,51.31
2023-05-24T00:13:20.257Z,51.24
2023-05-24T00:15:47.747Z,51.36
2023-05-24T00:18:14.774Z,51.35
2023-05-24T00:20:42.811Z,51.30
2023-05-24T00:23:10.596Z,51.54
2023-05-24T00:25:38.349Z,51.55
2023-05-24T00:28:05.366Z,51.69
2023-05-24T00:30:32.807Z,51.75
2023-05-24T00:32:59.850Z,51.63
2023-05-24T00:35:27.136Z,51.49
2023-05-24T00:37:54.154Z,51.56
2023-05-24T00:40:21.723Z,51.71
2023-05-24T00:42:50.754Z,51.88
2023-05-24T00:45:18.062Z,52.08
2023-05-24T00:47:46.436Z,52.17
2023-05-24T00:50:14.660Z,52.21
2023-05-24T00:52:42.704Z,52.26
2023-05-24T00:55:10.638Z,52.36
2023-05-24T00:57:38.442Z,52.26
2023-05-24T01:00:08.037Z,52.21
2023-05-24T01:02:35.525Z,52.22
2023-05-24T01:05:04.188Z,52.44
2023-05-24T01:07:40.585Z,52.44
2023-05-24T01:10:22.675Z,52.50
2023-05-24T01:13:36.538Z,52.55
2023-05-24T01:16:09.471Z,52.36
2023-05-24T01:18:41.794Z,52.11
2023-05-24T01:21:12.278Z,51.99
2023-05-24T01:23:55.419Z,52.07
2023-05-24T01:26:42.634Z,52.06
2023-05-24T01:29:10.806Z,51.99
2023-05-24T01:31:40.095Z,51.82
2023-05-24T01:34:07.727Z,51.89
2023-05-24T01:36:34.853Z,51.85
2023-05-24T01:39:01.813Z,51.80
2023-05-24T01:41:47.757Z,51.78
2023-05-24T01:44:39.974Z,51.93
2023-05-24T01:47:28.032Z,51.92
2023-05-24T01:50:06.479Z,51.82
2023-05-24T01:52:36.053Z,51.86
2023-05-24T01:55:07.912Z,51.76
2023-05-24T01:57:38.123Z,51.73
2023-05-24T02:00:06.814Z,51.66
2023-05-24T02:02:40.093Z,51.74
2023-05-24T02:05:08.140Z,51.76
2023-05-24T02:07:35.629Z,51.69
2023-05-24T02:10:03.995Z,51.68
2023-05-24T02:12:31.438Z,51.71
2023-05-24T02:14:58.448Z,51.74
2023-05-24T02:17:27.701Z,51.72
2023-05-24T02:19:54.817Z,51.57
2023-05-24T02:22:23.327Z,51.62
2023-05-24T02:24:50.204Z,51.57
2023-05-24T02:27:18.138Z,51.74
2023-05-24T02:29:45.127Z,51.79
2023-05-24T02:32:13.011Z,51.64
2023-05-24T02:34:40.081Z,51.47
2023-05-24T02:37:07.286Z,51.34
2023-05-24T02:39:34.437Z,51.26
2023-05-24T02:42:01.642Z,51.25
2023-05-24T02:44:28.829Z,51.29
2023-05-24T02:46:56.282Z,51.17
2023-05-24T02:49:23.934Z,51.15
2023-05-24T02:51:51.809Z,51.27
2023-05-24T02:54:19.571Z,51.26
2023-05-24T02:56:47.904Z,51.19
2023-05-24T02:59:17.625Z,51.17
2023-05-24T03:01:45.357Z,51.29
2023-05-24T03:04:12.998Z,51.24
2023-05-24T03:06:41.019Z,51.22
2023-05-24T03:09:09.269Z,51.20
2023-05-24T03:11:36.674Z,51.28
2023-05-24T03:14:04.022Z,51.39
2023-05-24T03:16:32.146Z,51.43
2023-05-24T03:19:00.121Z,51.48
2023-05-24T03:21:27.981Z,51.53
2023-05-24T03:23:56.812Z,51.65
2023-05-24T03:26:24.386Z,51.74
2023-05-24T03:28:52.290Z,51.40
2023-05-24T03:31:24.215Z,51.32
2023-05-24T03:33:51.697Z,51.22
2023-05-24T03:36:18.913Z,50.99
2023-05-24T03:38:47.155Z,51.13
2023-05-24T03:41:14.403Z,50.96
2023-05-24T03:43:43.099Z,50.99
2023-05-24T03:46:15.494Z,50.94
2023-05-24T03:48:42.878Z,51.02
2023-05-24T03:51:10.266Z,50.89
2023-05-24T03:53:38.046Z,50.71
2023-05-24T03:56:05.610Z,50.41
2023-05-24T03:58:33.004Z,50.20
2023-05-24T04:01:01.206Z,50.35
2023-05-24T04:03:28.743Z,50.40
2023-05-24T04:05:56.287Z,50.39
2023-05-24T04:08:23.306Z,50.43
2023-05-24T04:10:51.317Z,50.70
2023-05-24T04:13:18.598Z,50.66
2023-05-24T04:15:46.323Z,50.84
2023-05-24T04:18:13.357Z,50.79
2023-05-24T04:20:41.615Z,51.00
2023-05-24T04:23:09.668Z,51.38
2023-05-24T04:25:38.113Z,51.54
2023-05-24T04:28:06.216Z,51.85
2023-05-24T04:30:33.899Z,51.42
2023-05-24T04:33:00.971Z,51.54
2023-05-24T04:35:30.302Z,51.59
2023-05-24T04:37:57.703Z,51.76
2023-05-24T04:40:25.184Z,51.45
2023-05-24T04:42:52.389Z,51.50
2023-05-24T04:45:19.952Z,51.15
2023-05-24T04:47:47.121Z,51.34
2023-05-24T04:50:14.895Z,51.36
2023-05-24T04:52:41.859Z,51.38
2023-05-24T04:55:09.958Z,52.14
2023-05-24T04:57:36.932Z,52.19
2023-05-24T05:00:05.390Z,51.85
2023-05-24T05:02:33.175Z,51.61
2023-05-24T05:05:00.956Z,51.33
2023-05-24T05:07:28.366Z,51.16
2023-05-24T05:09:55.625Z,51.31
2023-05-24T05:12:22.682Z,51.67
2023-05-24T05:14:50.735Z,51.44
2023-05-24T05:17:17.641Z,51.11
2023-05-24T05:19:45.651Z,51.12
2023-05-24T05:22:12.847Z,50.96
2023-05-24T05:24:40.249Z,50.55
2023-05-24T05:27:07.595Z,50.45
2023-05-24T05:29:34.788Z,50.35
2023-05-24T05:32:02.158Z,50.23
2023-05-24T05:34:29.493Z,50.02
2023-05-24T05:36:56.533Z,49.37
2023-05-24T05:39:23.711Z,49.04
2023-05-24T05:41:51.200Z,48.46
2023-05-24T05:44:18.499Z,48.06
2023-05-24T05:46:46.466Z,48.12
2023-05-24T05:49:15.390Z,48.64
2023-05-24T05:51:42.823Z,48.60
2023-05-24T05:54:14.480Z,48.54
2023-05-24T05:56:45.861Z,48.57
2023-05-24T05:59:16.044Z,47.78
2023-05-24T06:01:47.737Z,47.88
2023-05-24T06:04:19.079Z,47.90
2023-05-24T06:06:50.021Z,46.70
2023-05-24T06:09:17.747Z,46.89
2023-05-24T06:11:44.955Z,46.76
2023-05-24T06:14:13.760Z,47.10
2023-05-24T06:16:43.638Z,47.01
2023-05-24T06:19:11.337Z,47.80
2023-05-24T06:21:38.495Z,47.83
2023-05-24T06:24:09.809Z,48.48
2023-05-24T06:26:37.842Z,48.24
2023-05-24T06:29:05.248Z,47.63
2023-05-24T06:31:33.160Z,46.74
2023-05-24T06:34:03.719Z,46.54
2023-05-24T06:36:36.121Z,46.56
2023-05-24T06:39:04.924Z,46.50
2023-05-24T06:41:31.866Z,47.08
2023-05-24T06:43:59.635Z,47.09
2023-05-24T06:46:26.850Z,46.92
2023-05-24T06:48:54.736Z,45.73
2023-05-24T06:51:22.051Z,44.77
2023-05-24T06:53:51.037Z,44.67
2023-05-24T06:56:18.169Z,43.51
2023-05-24T06:58:45.926Z,43.24
2023-05-24T07:01:13.088Z,43.39
2023-05-24T07:03:40.686Z,43.80
2023-05-24T07:06:10.060Z,43.49
2023-05-24T07:08:37.395Z,43.87
2023-05-24T07:11:04.465Z,43.86
2023-05-24T07:13:32.425Z,43.62
2023-05-24T07:15:59.507Z,43.18
2023-05-24T07:18:27.095Z,43.40
2023-05-24T07:20:55.044Z,43.05
2023-05-24T07:23:22.280Z,42.91
2023-05-24T07:25:49.701Z,43.00
2023-05-24T07:28:20.246Z,43.11
2023-05-24T07:30:48.184Z,43.83
2023-05-24T07:33:16.797Z,44.03
2023-05-24T07:35:45.919Z,43.74
2023-05-24T07:38:13.571Z,43.69
2023-05-24T07:40:40.694Z,43.22
2023-05-24T07:43:08.725Z,43.24
2023-05-24T07:45:36.265Z,42.88
2023-05-24T07:48:03.708Z,43.17
2023-05-24T07:50:31.155Z,43.57
2023-05-24T07:52:58.986Z,43.02
2023-05-24T07:55:28.129Z,43.67
2023-05-24T07:57:56.719Z,43.78
2023-05-24T08:00:23.852Z,44.44
2023-05-24T08:02:51.469Z,44.17
2023-05-24T08:05:19.051Z,43.68
2023-05-24T08:07:46.899Z,43.65
2023-05-24T08:10:16.915Z,44.07
2023-05-24T08:12:45.179Z,44.75
2023-05-24T08:15:12.800Z,43.96
2023-05-24T08:17:40.435Z,43.76
2023-05-24T08:20:15.126Z,44.34
2023-05-24T08:22:44.694Z,44.24
2023-05-24T08:25:12.309Z,44.07
2023-05-24T08:27:40.540Z,43.38
2023-05-24T08:30:09.080Z,43.15
2023-05-24T08:32:36.843Z,43.34
2023-05-24T08:35:19.242Z,43.26
2023-05-24T08:37:48.114Z,43.34
2023-05-24T08:40:16.105Z,42.08
2023-05-24T08:42:44.930Z,41.89
2023-05-24T08:45:13.649Z,41.74
2023-05-24T08:47:41.491Z,41.66
2023-05-24T08:50:08.972Z,41.69
2023-05-24T08:52:36.952Z,41.95
2023-05-24T08:55:14.500Z,40.06
2023-05-24T08:57:43.995Z,40.18
2023-05-24T09:00:13.017Z,40.33
2023-05-24T09:02:42.732Z,39.40
2023-05-24T09:05:12.012Z,39.45
2023-05-24T09:07:40.966Z,39.40
2023-05-24T09:10:09.863Z,39.37
2023-05-24T09:12:39.494Z,38.96
2023-05-24T09:15:08.910Z,39.83
2023-05-24T09:17:38.372Z,39.95
2023-05-24T09:20:10.110Z,39.89
2023-05-24T09:22:41.067Z,39.24
2023-05-24T09:25:11.109Z,39.44
2023-05-24T09:27:39.302Z,39.29
2023-05-24T09:30:13.041Z,39.29
2023-05-24T09:32:41.516Z,39.52
2023-05-24T09:35:10.651Z,39.63
2023-05-24T09:37:39.209Z,39.98
2023-05-24T09:40:08.013Z,40.04
2023-05-24T09:42:35.825Z,39.67
2023-05-24T09:45:06.538Z,40.38
2023-05-24T09:47:35.751Z,39.81
2023-05-24T09:50:04.738Z,39.48
2023-05-24T09:52:33.974Z,39.39
2023-05-24T09:55:12.732Z,39.59
2023-05-24T09:57:40.683Z,40.04
2023-05-24T10:00:21.911Z,40.57
2023-05-24T10:03:03.757Z,40.42
2023-05-24T10:05:31.368Z,40.04
2023-05-24T10:07:59.784Z,40.16
2023-05-24T10:10:32.546Z,40.44
2023-05-24T10:13:01.696Z,40.53
2023-05-24T10:15:29.405Z,40.52
2023-05-24T10:17:58.693Z,40.63
2023-05-24T10:20:26.977Z,40.80
2023-05-24T10:23:04.118Z,41.43
2023-05-24T10:25:34.880Z,41.17
2023-05-24T10:28:07.330Z,40.72
2023-05-24T10:30:50.202Z,40.53
2023-05-24T10:33:19.766Z,41.22
2023-05-24T10:35:46.947Z,41.66
2023-05-24T10:38:15.036Z,41.27
2023-05-24T10:40:42.988Z,42.15
2023-05-24T10:43:10.771Z,40.98
2023-05-24T10:45:39.814Z,41.23
2023-05-24T10:48:13.956Z,41.34
2023-05-24T10:50:42.508Z,40.65
2023-05-24T10:53:18.994Z,41.04
2023-05-24T10:55:58.915Z,40.56
2023-05-24T10:58:33.145Z,41.25
2023-05-24T11:01:00.153Z,41.35
2023-05-24T11:03:33.707Z,41.92
2023-05-24T11:06:01.570Z,42.19
2023-05-24T11:08:32.097Z,41.85
2023-05-24T11:11:23.125Z,40.65
2023-05-24T11:13:59.850Z,40.84
2023-05-24T11:16:41.301Z,41.31
2023-05-24T11:19:13.440Z,40.44
2023-05-24T11:21:43.597Z,39.88
2023-05-24T11:24:11.714Z,40.15
2023-05-24T11:26:39.400Z,40.78
2023-05-24T11:29:08.018Z,39.90
2023-05-24T11:31:43.167Z,40.56
2023-05-24T11:34:12.192Z,40.65
2023-05-24T11:36:39.944Z,40.46
2023-05-24T11:39:09.392Z,39.87
2023-05-24T11:41:38.546Z,39.75
2023-05-24T11:44:11.294Z,40.75
2023-05-24T11:46:39.824Z,39.72
2023-05-24T11:49:12.329Z,39.12
2023-05-24T11:51:40.728Z,39.53
2023-05-24T11:54:08.398Z,39.41
2023-05-24T11:56:36.021Z,39.82
2023-05-24T11:59:20.268Z,39.25
2023-05-24T12:01:47.749Z,39.28
2023-05-24T12:04:15.028Z,39.69
2023-05-24T12:06:44.705Z,39.94
2023-05-24T12:09:15.647Z,39.78
2023-05-24T12:11:44.947Z,39.59
2023-05-24T12:14:14.562Z,39.30
2023-05-24T12:16:46.093Z,39.34
2023-05-24T12:19:32.544Z,38.94
2023-05-24T12:22:05.298Z,39.35
2023-05-24T12:24:33.603Z,39.13
2023-05-24T12:27:02.869Z,39.23
2023-05-24T12:29:39.935Z,38.90
2023-05-24T12:32:13.209Z,39.23
2023-05-24T12:34:42.969Z,39.11
2023-05-24T12:37:12.276Z,38.67
2023-05-24T12:39:42.434Z,38.59
2023-05-24T12:42:11.595Z,38.02
2023-05-24T12:44:39.281Z,37.96
2023-05-24T12:47:08.480Z,38.54
2023-05-24T12:49:37.027Z,38.50
2023-05-24T12:52:04.765Z,38.36
2023-05-24T12:54:32.809Z,38.09
2023-05-24T12:57:00.733Z,37.92
2023-05-24T12:59:29.080Z,37.68
2023-05-24T13:01:56.716Z,36.32
2023-05-24T13:04:27.843Z,36.05
2023-05-24T13:06:55.095Z,36.49
2023-05-24T13:09:23.746Z,36.96
2023-05-24T13:11:52.683Z,35.82
2023-05-24T13:14:20.572Z,36.43
2023-05-24T13:16:48.830Z,36.96
2023-05-24T13:19:17.784Z,36.30
2023-05-24T13:21:45.321Z,34.68
2023-05-24T13:24:16.004Z,34.95
2023-05-24T13:26:43.520Z,34.66
2023-05-24T13:31:41.872Z,33.79
2023-05-24T13:34:11.164Z,35.04
2023-05-24T13:36:38.772Z,35.46
2023-05-24T13:41:42.579Z,36.95
2023-05-24T13:44:10.602Z,37.28
2023-05-24T13:46:38.841Z,37.52
2023-05-24T13:49:07.262Z,37.65
2023-05-24T13:51:35.276Z,38.21
2023-05-24T13:54:03.383Z,38.28
2023-05-24T13:56:33.209Z,37.95
2023-05-24T13:59:02.799Z,37.84
2023-05-24T14:01:30.740Z,38.14
2023-05-24T14:03:58.837Z,38.07
2023-05-24T14:06:26.040Z,37.69
2023-05-24T14:08:53.765Z,37.79
2023-05-24T14:11:22.412Z,37.94
2023-05-24T14:16:20.660Z,38.11
2023-05-24T14:18:50.448Z,37.54
2023-05-24T14:21:25.930Z,37.46
2023-05-24T14:23:54.034Z,37.32
2023-05-24T14:26:23.643Z,37.21
2023-05-24T14:28:54.359Z,37.89
2023-05-24T14:31:24.115Z,37.91
2023-05-24T14:33:51.564Z,37.48
2023-05-24T14:36:19.230Z,38.00
2023-05-24T14:38:47.022Z,38.15
2023-05-24T14:41:14.131Z,37.77
2023-05-24T14:43:42.072Z,37.98
2023-05-24T14:46:09.649Z,37.74
2023-05-24T14:48:37.508Z,37.65
2023-05-24T14:51:05.860Z,38.06
2023-05-24T14:53:33.673Z,38.24
2023-05-24T14:56:00.884Z,38.51
2023-05-24T14:58:28.869Z,38.65
2023-05-24T15:00:56.278Z,37.46
2023-05-24T15:03:24.430Z,37.89
2023-05-24T15:05:52.438Z,38.09
2023-05-24T15:08:20.074Z,38.07
2023-05-24T15:10:47.155Z,37.91
2023-05-24T15:13:14.800Z,38.53
2023-05-24T15:15:42.465Z,39.05
2023-05-24T15:18:10.324Z,39.52
2023-05-24T15:20:38.174Z,39.44
2023-05-24T15:23:06.586Z,39.47
2023-05-24T15:25:33.958Z,39.89
2023-05-24T15:28:01.655Z,41.49
2023-05-24T15:30:28.872Z,40.36
2023-05-24T15:32:56.661Z,40.02
2023-05-24T15:35:23.711Z,39.31
2023-05-24T15:37:51.083Z,39.06
2023-05-24T15:40:18.998Z,39.42
2023-05-24T15:42:46.895Z,44.12
2023-05-24T15:45:14.051Z,47.63
2023-05-24T15:47:42.305Z,50.81
2023-05-24T15:50:10.305Z,52.51
2023-05-24T15:52:37.912Z,53.42
2023-05-24T15:55:05.549Z,54.56
2023-05-24T15:57:32.891Z,53.62
2023-05-24T16:00:00.344Z,55.49
2023-05-24T16:02:29.634Z,56.13
2023-05-24T16:04:57.503Z,57.16
2023-05-24T16:07:25.236Z,57.90
2023-05-24T16:09:52.205Z,57.99
2023-05-24T16:12:20.106Z,58.49
2023-05-24T16:14:47.156Z,58.39
2023-05-24T16:17:15.408Z,57.61
2023-05-24T16:19:42.417Z,56.63
2023-05-24T16:22:09.979Z,57.53
2023-05-24T16:24:38.846Z,56.42
2023-05-24T16:27:08.579Z,56.03
2023-05-24T16:29:37.169Z,54.99
2023-05-24T16:32:05.184Z,54.57
2023-05-24T16:34:41.383Z,54.71
2023-05-24T16:37:13.266Z,55.97
2023-05-24T16:39:40.980Z,58.89
2023-05-24T16:42:08.496Z,60.83
2023-05-24T16:44:35.629Z,61.74
2023-05-24T16:47:04.405Z,63.28
2023-05-24T16:49:31.677Z,64.13
2023-05-24T16:51:59.368Z,64.42
2023-05-24T16:54:26.260Z,64.75
2023-05-24T16:56:55.077Z,64.37
2023-05-24T16:59:23.559Z,65.31
2023-05-24T17:01:51.681Z,64.56
2023-05-24T17:04:19.452Z,65.53
2023-05-24T17:06:46.952Z,64.91
2023-05-24T17:09:14.348Z,64.97
2023-05-24T17:11:42.002Z,64.83
2023-05-24T17:14:09.737Z,65.90
2023-05-24T17:16:37.271Z,65.27
2023-05-24T17:19:04.957Z,66.07
2023-05-24T17:21:32.475Z,66.00
2023-05-24T17:23:59.706Z,66.00
2023-05-24T17:26:28.882Z,67.03
2023-05-24T17:28:57.088Z,67.61
2023-05-24T17:31:24.353Z,67.20
2023-05-24T17:33:52.034Z,67.76
2023-05-24T17:36:19.968Z,67.72
2023-05-24T17:38:46.904Z,68.40
2023-05-24T17:41:14.240Z,68.21
2023-05-24T17:43:42.031Z,68.56
2023-05-24T17:46:10.034Z,68.56
2023-05-24T17:48:42.206Z,68.79
2023-05-24T17:51:10.835Z,68.71
2023-05-24T17:53:38.409Z,68.87
2023-05-24T17:56:07.888Z,69.47
2023-05-24T17:58:38.047Z,70.03
2023-05-24T18:01:07.576Z,70.59
2023-05-24T18:03:37.144Z,70.69
2023-05-24T18:06:08.653Z,70.65
2023-05-24T18:08:37.953Z,70.85
2023-05-24T18:11:10.454Z,71.00
2023-05-24T18:13:39.096Z,71.38
2023-05-24T18:16:07.458Z,71.77
2023-05-24T18:18:34.659Z,71.82
2023-05-24T18:21:02.025Z,71.74
2023-05-24T18:23:29.411Z,72.12
2023-05-24T18:26:01.183Z,72.55
2023-05-24T18:28:30.375Z,72.57
2023-05-24T18:30:57.909Z,72.84
2023-05-24T18:33:25.255Z,73.08
2023-05-24T18:35:52.606Z,73.36
2023-05-24T18:38:20.145Z,73.73
2023-05-24T18:40:47.773Z,74.17
2023-05-24T18:43:14.758Z,73.98
2023-05-24T18:45:42.550Z,74.19
2023-05-24T18:48:09.986Z,74.52
2023-05-24T18:50:37.602Z,74.62
2023-05-24T18:53:04.503Z,74.72
2023-05-24T18:55:31.867Z,75.15
2023-05-24T18:57:58.982Z,75.39
2023-05-24T19:00:27.148Z,75.33
2023-05-24T19:02:55.723Z,75.38
2023-05-24T19:05:23.501Z,75.60
2023-05-24T19:07:50.477Z,75.89
2023-05-24T19:10:18.154Z,76.23
2023-05-24T19:12:45.160Z,77.04
2023-05-24T19:15:12.387Z,76.54
2023-05-24T19:17:39.602Z,76.30
2023-05-24T19:20:08.020Z,76.86
2023-05-24T19:22:35.106Z,77.24
2023-05-24T19:25:02.461Z,77.52
2023-05-24T19:27:29.741Z,78.04
2023-05-24T19:29:59.409Z,77.47
2023-05-24T19:32:26.594Z,77.94
2023-05-24T19:34:53.923Z,78.29
2023-05-24T19:37:21.397Z,78.48
2023-05-24T19:39:48.676Z,78.75
2023-05-24T19:42:15.865Z,78.89
2023-05-24T19:44:43.341Z,79.04
2023-05-24T19:47:10.377Z,79.66
2023-05-24T19:49:37.840Z,79.54
2023-05-24T19:52:05.493Z,79.99
2023-05-24T19:54:32.748Z,80.00
2023-05-24T19:57:01.767Z,80.03
2023-05-24T19:59:29.228Z,80.48
2023-05-24T20:01:56.469Z,80.76
2023-05-24T20:04:23.782Z,80.86
2023-05-24T20:06:53.011Z,81.56
2023-05-24T20:09:20.403Z,81.98
2023-05-24T20:11:47.656Z,82.28
2023-05-24T20:14:15.016Z,82.39
2023-05-24T20:16:42.324Z,83.27
2023-05-24T20:19:11.850Z,83.32
2023-05-24T20:21:38.850Z,83.27
2023-05-24T20:24:06.806Z,83.59
2023-05-24T20:26:35.087Z,83.79
2023-05-24T20:29:02.812Z,84.38
2023-05-24T20:31:30.045Z,84.39
2023-05-24T20:33:57.827Z,84.98
2023-05-24T20:36:25.087Z,84.79
2023-05-24T20:38:52.599Z,84.59
2023-05-24T20:41:19.536Z,85.10
2023-05-24T20:43:47.085Z,85.34
2023-05-24T20:46:14.558Z,85.28
2023-05-24T20:48:43.365Z,85.21
2023-05-24T20:51:10.285Z,85.46
2023-05-24T20:53:37.980Z,85.70
2023-05-24T20:56:04.886Z,86.22
2023-05-24T20:58:32.520Z,86.61
2023-05-24T21:00:59.604Z,86.32
2023-05-24T21:03:27.250Z,86.48
2023-05-24T21:05:55.010Z,86.38
2023-05-24T21:08:22.592Z,86.55
2023-05-24T21:10:50.674Z,86.27
2023-05-24T21:13:20.490Z,86.55
2023-05-24T21:15:47.859Z,86.80
2023-05-24T21:18:15.529Z,86.53
2023-05-24T21:20:42.582Z,86.17
2023-05-24T21:23:10.712Z,86.40
2023-05-24T21:25:38.109Z,86.20
2023-05-24T21:28:05.344Z,86.44
2023-05-24T21:30:32.530Z,86.53
2023-05-24T21:32:59.902Z,86.51
2023-05-24T21:35:28.006Z,86.42
2023-05-24T21:37:55.341Z,86.47
2023-05-24T21:40:22.816Z,86.76
2023-05-24T21:42:50.033Z,86.68
2023-05-24T21:45:17.355Z,87.10
2023-05-24T21:47:44.473Z,87.29
2023-05-24T21:50:11.566Z,87.32
2023-05-24T21:52:39.492Z,87.50
2023-05-24T21:55:07.330Z,87.25
2023-05-24T21:57:34.758Z,87.69
2023-05-24T22:00:02.653Z,88.01
2023-05-24T22:02:32.631Z,88.00
2023-05-24T22:05:00.114Z,88.32
2023-05-24T22:07:27.362Z,88.28
2023-05-24T22:09:55.033Z,88.78
2023-05-24T22:12:22.665Z,88.72
2023-05-24T22:14:49.816Z,89.05
2023-05-24T22:17:16.998Z,88.90
2023-05-24T22:19:44.592Z,88.90
2023-05-24T22:22:12.567Z,89.07
2023-05-24T22:24:40.729Z,89.13
2023-05-24T22:27:13.618Z,89.24
2023-05-24T22:29:40.705Z,89.90
2023-05-24T22:32:08.119Z,89.77
2023-05-24T22:34:35.524Z,89.85
2023-05-24T22:37:02.758Z,90.08
2023-05-24T22:39:30.096Z,90.23
2023-05-24T22:41:57.289Z,90.17
2023-05-24T22:44:24.857Z,90.55
2023-05-24T22:46:54.967Z,90.86
2023-05-24T22:49:22.848Z,91.05
2023-05-24T22:51:51.250Z,91.05
2023-05-24T22:54:19.777Z,90.83
2023-05-24T22:56:47.142Z,90.89
2023-05-24T22:59:14.306Z,90.95
2023-05-24T23:01:41.638Z,91.27
2023-05-24T23:04:20.727Z,91.21
2023-05-24T23:06:53.117Z,91.53
2023-05-24T23:09:34.792Z,91.45
2023-05-24T23:12:08.567Z,91.67
2023-05-24T23:14:41.641Z,92.01
2023-05-24T23:17:20.258Z,92.40
2023-05-24T23:19:50.511Z,92.60
2023-05-24T23:22:24.066Z,92.79
2023-05-24T23:24:51.353Z,93.10
2023-05-24T23:27:18.570Z,92.96
2023-05-24T23:29:45.823Z,93.43
2023-05-24T23:32:13.243Z,93.35
2023-05-24T23:34:40.131Z,93.46
2023-05-24T23:37:07.662Z,93.62
2023-05-24T23:39:34.754Z,94.14
2023-05-24T23:42:02.703Z,93.66
2023-05-24T23:44:30.105Z,93.97
2023-05-24T23:46:58.025Z,94.48
2023-05-24T23:49:25.835Z,94.82
2023-05-24T23:51:53.357Z,94.96
2023-05-24T23:54:20.398Z,94.52
2023-05-24T23:56:47.960Z,94.93
2023-05-24T23:59:16.964Z,95.09
